createdAt,value
2022-09-10T00:01:40.685Z,15.45
2022-09-10T00:04:11.780Z,15.48
2022-09-10T00:06:41.447Z,15.49
2022-09-10T00:09:10.496Z,15.43
2022-09-10T00:11:41.647Z,15.40
2022-09-10T00:14:15.117Z,15.30
2022-09-10T00:16:44.203Z,15.36
2022-09-10T00:19:13.162Z,15.32
2022-09-10T00:21:42.101Z,15.28
2022-09-10T00:24:11.079Z,15.28
2022-09-10T00:26:41.248Z,15.22
2022-09-10T00:29:12.376Z,15.16
2022-09-10T00:31:41.245Z,15.12
2022-09-10T00:34:11.503Z,15.10
2022-09-10T00:36:41.979Z,15.16
2022-09-10T00:39:12.926Z,15.18
2022-09-10T00:41:44.922Z,15.20
2022-09-10T00:44:57.836Z,15.13
2022-09-10T00:47:29.391Z,15.09
2022-09-10T00:50:01.820Z,15.12
2022-09-10T00:52:30.595Z,15.11
2022-09-10T00:54:59.910Z,15.05
2022-09-10T00:57:30.244Z,15.08
2022-09-10T01:00:01.709Z,15.10
2022-09-10T01:02:30.502Z,15.11
2022-09-10T01:04:59.208Z,15.09
2022-09-10T01:07:29.307Z,15.12
2022-09-10T01:09:58.878Z,15.16
2022-09-10T01:12:43.617Z,15.11
2022-09-10T01:15:20.097Z,15.14
2022-09-10T01:18:03.385Z,15.11
2022-09-10T01:20:51.115Z,15.13
2022-09-10T01:24:06.465Z,15.09
2022-09-10T01:27:08.354Z,15.13
2022-09-10T01:29:40.647Z,15.14
2022-09-10T01:32:12.921Z,15.11
2022-09-10T01:34:45.757Z,15.19
2022-09-10T01:37:17.542Z,15.21
2022-09-10T01:39:47.439Z,15.15
2022-09-10T01:42:16.290Z,15.15
2022-09-10T01:44:48.188Z,15.15
2022-09-10T01:47:26.968Z,15.23
2022-09-10T01:50:14.072Z,15.20
2022-09-10T01:52:47.812Z,15.17
2022-09-10T01:55:26.775Z,15.15
2022-09-10T01:58:01.199Z,15.12
2022-09-10T02:00:33.333Z,15.23
2022-09-10T02:03:06.451Z,15.24
2022-09-10T02:05:37.591Z,15.16
2022-09-10T02:08:16.543Z,15.23
2022-09-10T02:10:52.157Z,15.08
2022-09-10T02:13:21.396Z,15.15
2022-09-10T02:15:52.326Z,15.15
2022-09-10T02:18:21.531Z,15.16
2022-09-10T02:20:51.813Z,15.18
2022-09-10T02:23:23.775Z,15.13
2022-09-10T02:25:53.679Z,15.18
2022-09-10T02:28:22.337Z,15.24
2022-09-10T02:30:52.863Z,15.25
2022-09-10T02:33:21.841Z,15.21
2022-09-10T02:35:51.971Z,15.17
2022-09-10T02:38:21.332Z,15.13
2022-09-10T02:40:50.048Z,15.10
2022-09-10T02:43:18.775Z,15.12
2022-09-10T02:45:47.475Z,15.08
2022-09-10T02:48:18.225Z,15.12
2022-09-10T02:50:47.236Z,15.09
2022-09-10T02:53:16.154Z,15.17
2022-09-10T02:55:46.114Z,15.17
2022-09-10T02:58:15.077Z,15.14
2022-09-10T03:00:43.936Z,15.14
2022-09-10T03:03:13.038Z,15.08
2022-09-10T03:05:43.308Z,14.99
2022-09-10T03:08:11.971Z,14.96
2022-09-10T03:10:41.186Z,14.98
2022-09-10T03:13:09.862Z,14.98
2022-09-10T03:15:38.480Z,14.99
2022-09-10T03:18:08.276Z,14.99
2022-09-10T03:20:36.961Z,14.99
2022-09-10T03:23:07.354Z,14.94
2022-09-10T03:25:36.298Z,14.99
2022-09-10T03:28:04.959Z,14.95
2022-09-10T03:30:33.767Z,15.10
2022-09-10T03:33:02.474Z,14.99
2022-09-10T03:35:31.099Z,14.98
2022-09-10T03:37:59.734Z,14.98
2022-09-10T03:40:30.523Z,15.00
2022-09-10T03:42:59.205Z,14.88
2022-09-10T03:45:28.584Z,14.94
2022-09-10T03:47:57.464Z,14.95
2022-09-10T03:50:26.385Z,14.96
2022-09-10T03:52:55.019Z,14.97
2022-09-10T03:55:23.801Z,14.95
2022-09-10T03:57:53.829Z,14.90
2022-09-10T04:00:23.265Z,14.94
2022-09-10T04:02:52.029Z,14.96
2022-09-10T04:05:20.834Z,14.90
2022-09-10T04:07:49.452Z,14.97
2022-09-10T04:10:18.965Z,14.98
2022-09-10T04:12:48.810Z,14.96
2022-09-10T04:15:18.880Z,14.93
2022-09-10T04:17:48.272Z,14.90
2022-09-10T04:20:16.971Z,14.92
2022-09-10T04:22:46.371Z,14.89
2022-09-10T04:25:15.669Z,14.85
2022-09-10T04:27:44.362Z,14.90
2022-09-10T04:30:14.353Z,14.94
2022-09-10T04:32:45.096Z,14.96
2022-09-10T04:35:15.244Z,14.97
2022-09-10T04:37:44.160Z,15.00
2022-09-10T04:40:12.872Z,15.02
2022-09-10T04:42:41.641Z,14.99
2022-09-10T04:45:10.914Z,15.07
2022-09-10T04:47:39.588Z,14.96
2022-09-10T04:50:11.246Z,15.03
2022-09-10T04:52:39.934Z,14.99
2022-09-10T04:55:09.376Z,15.04
2022-09-10T04:57:38.073Z,15.04
2022-09-10T05:00:08.832Z,15.00
2022-09-10T05:02:37.628Z,15.05
2022-09-10T05:05:07.511Z,14.96
2022-09-10T05:07:37.477Z,14.99
2022-09-10T05:10:10.370Z,14.98
2022-09-10T05:12:40.354Z,14.91
2022-09-10T05:15:10.657Z,14.94
2022-09-10T05:17:39.766Z,14.95
2022-09-10T05:20:08.952Z,14.99
2022-09-10T05:22:40.726Z,14.97
2022-09-10T05:25:10.182Z,14.95
2022-09-10T05:27:38.883Z,14.88
2022-09-10T05:30:08.943Z,14.93
2022-09-10T05:32:38.442Z,14.92
2022-09-10T05:35:08.661Z,14.95
2022-09-10T05:37:37.239Z,14.98
2022-09-10T05:40:09.184Z,14.99
2022-09-10T05:42:38.174Z,14.94
2022-09-10T05:45:08.007Z,15.00
2022-09-10T05:47:37.505Z,15.05
2022-09-10T05:50:07.234Z,15.08
2022-09-10T05:52:35.916Z,15.07
2022-09-10T05:55:05.229Z,15.06
2022-09-10T05:57:35.449Z,15.12
2022-09-10T06:00:07.680Z,15.07
2022-09-10T06:02:36.540Z,15.07
2022-09-10T06:05:06.037Z,15.07
2022-09-10T06:07:35.210Z,15.05
2022-09-10T06:10:03.920Z,15.15
2022-09-10T06:12:34.168Z,15.09
2022-09-10T06:15:04.681Z,15.16
2022-09-10T06:17:33.701Z,15.17
2022-09-10T06:20:02.564Z,15.21
2022-09-10T06:22:32.011Z,15.23
2022-09-10T06:25:00.636Z,15.23
2022-09-10T06:27:29.803Z,15.21
2022-09-10T06:29:58.646Z,15.23
2022-09-10T06:32:28.998Z,15.22
2022-09-10T06:34:57.613Z,15.27
2022-09-10T06:37:26.941Z,15.22
2022-09-10T06:39:55.685Z,15.29
2022-09-10T06:42:24.300Z,15.30
2022-09-10T06:44:53.351Z,15.32
2022-09-10T06:50:12.291Z,15.36
2022-09-10T06:52:41.050Z,15.45
2022-09-10T06:55:10.694Z,15.53
2022-09-10T06:57:40.006Z,15.65
2022-09-10T07:00:10.149Z,15.64
2022-09-10T07:02:38.757Z,15.70
2022-09-10T07:05:07.928Z,15.71
2022-09-10T07:07:38.769Z,15.76
2022-09-10T07:10:08.413Z,15.75
2022-09-10T07:12:37.059Z,15.71
2022-09-10T07:15:06.412Z,15.73
2022-09-10T07:17:36.223Z,15.68
2022-09-10T07:20:05.701Z,15.68
2022-09-10T07:22:34.468Z,15.76
2022-09-10T07:25:04.984Z,15.52
2022-09-10T07:27:34.018Z,15.63
2022-09-10T07:30:02.674Z,15.74
2022-09-10T07:32:33.465Z,15.80
2022-09-10T07:35:02.133Z,15.92
2022-09-10T07:37:30.843Z,16.00
2022-09-10T07:39:59.827Z,15.98
2022-09-10T07:42:30.063Z,16.00
2022-09-10T07:44:59.129Z,16.07
2022-09-10T07:47:27.831Z,16.16
2022-09-10T07:49:56.883Z,16.17
2022-09-10T07:52:26.075Z,16.17
2022-09-10T07:54:54.752Z,16.19
2022-09-10T07:57:23.357Z,16.18
2022-09-10T07:59:53.773Z,16.19
2022-09-10T08:02:25.708Z,16.23
2022-09-10T08:04:54.610Z,16.20
2022-09-10T08:07:23.335Z,16.28
2022-09-10T08:09:51.945Z,16.25
2022-09-10T08:12:20.635Z,16.29
2022-09-10T08:14:49.328Z,16.41
2022-09-10T08:17:20.341Z,16.32
2022-09-10T08:19:50.585Z,16.34
2022-09-10T08:22:20.441Z,16.25
2022-09-10T08:24:49.425Z,16.38
2022-09-10T08:27:18.683Z,16.49
2022-09-10T08:29:47.338Z,16.67
2022-09-10T08:32:16.105Z,16.72
2022-09-10T08:34:46.152Z,16.77
2022-09-10T08:37:16.179Z,16.74
2022-09-10T08:39:44.997Z,16.87
2022-09-10T08:42:17.664Z,16.87
2022-09-10T08:44:50.327Z,16.74
2022-09-10T08:47:27.363Z,16.76
2022-09-10T08:50:00.323Z,16.93
2022-09-10T08:52:33.949Z,17.08
2022-09-10T08:55:07.649Z,17.16
2022-09-10T08:57:40.038Z,17.32
2022-09-10T09:00:14.523Z,17.46
2022-09-10T09:02:49.990Z,17.60
2022-09-10T09:05:22.726Z,17.60
2022-09-10T09:07:53.302Z,17.64
2022-09-10T09:10:30.311Z,17.76
2022-09-10T09:13:18.040Z,17.86
2022-09-10T09:15:51.756Z,17.88
2022-09-10T09:18:27.988Z,17.96
2022-09-10T09:21:01.849Z,17.91
2022-09-10T09:23:34.516Z,17.83
2022-09-10T09:26:05.810Z,17.97
2022-09-10T09:28:40.838Z,17.91
2022-09-10T09:31:14.901Z,17.88
2022-09-10T09:33:45.317Z,17.83
2022-09-10T09:36:19.043Z,17.91
2022-09-10T09:38:50.775Z,18.09
2022-09-10T09:41:26.176Z,18.23
2022-09-10T09:43:58.925Z,18.21
2022-09-10T09:46:27.733Z,18.36
2022-09-10T09:49:00.028Z,18.46
2022-09-10T09:51:35.367Z,18.66
2022-09-10T09:56:59.278Z,18.65
2022-09-10T09:59:29.836Z,18.34
2022-09-10T10:02:05.693Z,18.39
2022-09-10T10:04:41.511Z,18.41
2022-09-10T10:07:12.964Z,18.39
2022-09-10T10:09:44.440Z,18.51
2022-09-10T10:12:20.741Z,18.62
2022-09-10T10:14:49.976Z,18.24
2022-09-10T10:17:36.653Z,18.43
2022-09-10T10:20:13.320Z,18.46
2022-09-10T10:22:44.601Z,18.58
2022-09-10T10:25:41.126Z,18.72
2022-09-10T10:28:16.353Z,18.93
2022-09-10T10:30:45.273Z,18.98
2022-09-10T10:33:19.171Z,18.68
2022-09-10T10:35:49.860Z,18.90
2022-09-10T10:38:30.627Z,19.03
2022-09-10T10:41:24.264Z,19.11
2022-09-10T10:43:59.440Z,19.22
2022-09-10T10:46:30.201Z,19.28
2022-09-10T10:49:06.805Z,19.20
2022-09-10T10:51:44.176Z,19.36
2022-09-10T10:54:25.688Z,19.23
2022-09-10T10:57:02.491Z,19.20
2022-09-10T10:59:42.407Z,19.12
2022-09-10T11:02:16.208Z,19.46
2022-09-10T11:04:47.911Z,19.96
2022-09-10T11:07:23.703Z,20.14
2022-09-10T11:09:58.917Z,20.36
2022-09-10T11:12:31.482Z,20.36
2022-09-10T11:15:04.604Z,20.35
2022-09-10T11:17:39.351Z,20.33
2022-09-10T11:20:30.256Z,20.35
2022-09-10T11:23:04.747Z,20.20
2022-09-10T11:25:38.444Z,20.35
2022-09-10T11:28:12.946Z,20.18
2022-09-10T11:30:45.772Z,20.27
2022-09-10T11:33:18.825Z,20.23
2022-09-10T11:35:52.071Z,20.19
2022-09-10T11:38:27.699Z,19.97
2022-09-10T11:41:07.209Z,20.13
2022-09-10T11:43:41.104Z,20.38
2022-09-10T11:46:11.704Z,20.44
2022-09-10T11:48:43.480Z,20.47
2022-09-10T11:51:15.853Z,20.49
2022-09-10T11:53:45.313Z,20.50
2022-09-10T11:56:32.729Z,20.12
2022-09-10T11:59:10.869Z,20.03
2022-09-10T12:01:55.995Z,20.06
2022-09-10T12:04:40.453Z,20.12
2022-09-10T12:07:21.057Z,20.00
2022-09-10T12:09:58.372Z,20.24
2022-09-10T12:12:34.520Z,20.33
2022-09-10T12:15:08.942Z,20.45
2022-09-10T12:17:40.041Z,20.60
2022-09-10T12:20:15.876Z,20.74
2022-09-10T12:22:44.913Z,21.00
2022-09-10T12:25:28.362Z,21.29
2022-09-10T12:28:03.077Z,21.64
2022-09-10T12:31:02.724Z,21.87
2022-09-10T12:34:07.450Z,21.80
2022-09-10T12:37:16.691Z,21.55
2022-09-10T12:39:49.123Z,21.31
2022-09-10T12:42:28.983Z,21.00
2022-09-10T12:44:59.173Z,20.94
2022-09-10T12:47:43.647Z,20.66
2022-09-10T12:50:27.325Z,20.37
2022-09-10T12:53:08.004Z,20.28
2022-09-10T12:55:42.841Z,20.36
2022-09-10T12:58:24.167Z,20.38
2022-09-10T13:01:09.716Z,20.34
2022-09-10T13:03:38.513Z,20.28
2022-09-10T13:06:09.816Z,20.17
2022-09-10T13:08:41.479Z,20.06
2022-09-10T13:11:17.031Z,19.97
2022-09-10T13:13:51.650Z,19.89
2022-09-10T13:16:39.082Z,19.87
2022-09-10T13:19:45.175Z,19.80
2022-09-10T13:22:34.886Z,19.87
2022-09-10T13:25:18.874Z,19.98
2022-09-10T13:27:48.515Z,19.99
2022-09-10T13:30:19.246Z,20.14
2022-09-10T13:32:55.178Z,20.09
2022-09-10T13:35:59.867Z,20.16
2022-09-10T13:38:41.406Z,19.97
2022-09-10T13:41:27.850Z,19.69
2022-09-10T13:44:11.198Z,19.69
2022-09-10T13:46:42.650Z,19.63
2022-09-10T13:49:16.665Z,19.66
2022-09-10T13:51:50.428Z,19.59
2022-09-10T13:54:31.166Z,19.61
2022-09-10T13:57:04.738Z,19.77
2022-09-10T13:59:34.821Z,19.82
2022-09-10T14:02:03.478Z,19.78
2022-09-10T14:04:36.545Z,19.88
2022-09-10T14:07:08.033Z,19.91
2022-09-10T14:09:37.673Z,19.77
2022-09-10T14:12:08.859Z,19.87
2022-09-10T14:14:41.116Z,19.86
2022-09-10T14:17:11.921Z,19.61
2022-09-10T14:19:45.870Z,19.56
2022-09-10T14:22:17.790Z,19.55
2022-09-10T14:24:48.205Z,19.42
2022-09-10T14:27:18.536Z,19.38
2022-09-10T14:29:47.677Z,19.26
2022-09-10T14:32:36.207Z,19.28
2022-09-10T14:35:37.431Z,19.23
2022-09-10T14:38:22.507Z,19.22
2022-09-10T14:40:54.394Z,19.29
2022-09-10T14:43:29.466Z,19.26
2022-09-10T14:45:58.732Z,19.21
2022-09-10T14:48:36.990Z,19.16
2022-09-10T14:51:18.602Z,19.14
2022-09-10T14:53:51.500Z,19.22
2022-09-10T14:56:23.280Z,19.28
2022-09-10T14:58:58.267Z,19.25
2022-09-10T15:01:27.438Z,19.11
2022-09-10T15:03:56.457Z,19.12
2022-09-10T15:06:27.027Z,19.23
2022-09-10T15:08:57.092Z,19.31
2022-09-10T15:11:27.452Z,19.43
2022-09-10T15:13:58.743Z,19.57
2022-09-10T15:16:28.055Z,19.64
2022-09-10T15:18:58.270Z,19.76
2022-09-10T15:21:28.301Z,19.92
2022-09-10T15:23:56.941Z,19.90
2022-09-10T15:26:25.787Z,20.00
2022-09-10T15:28:54.455Z,20.00
2022-09-10T15:31:23.529Z,20.04
2022-09-10T15:33:52.571Z,20.05
2022-09-10T15:36:22.389Z,19.91
2022-09-10T15:38:55.827Z,19.80
2022-09-10T15:41:24.490Z,19.80
2022-09-10T15:43:53.219Z,19.74
2022-09-10T15:46:24.489Z,19.66
2022-09-10T15:48:53.542Z,19.59
2022-09-10T15:51:23.942Z,19.50
2022-09-10T15:53:53.838Z,19.41
2022-09-10T15:56:26.011Z,19.34
2022-09-10T15:58:56.129Z,19.30
2022-09-10T16:01:26.025Z,19.03
2022-09-10T16:03:56.313Z,19.13
2022-09-10T16:06:27.304Z,18.86
2022-09-10T16:08:57.943Z,18.37
2022-09-10T16:11:28.372Z,18.03
2022-09-10T16:14:02.182Z,17.96
2022-09-10T16:16:34.067Z,17.88
2022-09-10T16:19:02.876Z,17.89
2022-09-10T16:21:32.828Z,17.82
2022-09-10T16:24:02.427Z,17.77
2022-09-10T16:26:34.491Z,17.75
2022-09-10T16:29:05.717Z,17.75
2022-09-10T16:31:35.494Z,17.67
2022-09-10T16:34:05.625Z,17.50
2022-09-10T16:36:36.893Z,17.31
2022-09-10T16:39:12.375Z,17.24
2022-09-10T16:41:43.838Z,17.10
2022-09-10T16:44:14.738Z,17.11
2022-09-10T16:46:43.544Z,17.11
2022-09-10T16:49:13.815Z,17.07
2022-09-10T16:51:43.431Z,17.15
2022-09-10T16:54:13.800Z,17.17
2022-09-10T16:56:45.354Z,17.13
2022-09-10T16:59:15.932Z,17.10
2022-09-10T17:01:45.922Z,17.20
2022-09-10T17:04:20.444Z,17.18
2022-09-10T17:06:51.766Z,17.17
2022-09-10T17:09:20.481Z,17.14
2022-09-10T17:11:51.195Z,17.08
2022-09-10T17:14:20.272Z,16.98
2022-09-10T17:16:49.935Z,16.95
2022-09-10T17:19:20.145Z,17.00
2022-09-10T17:21:51.279Z,17.01
2022-09-10T17:24:22.687Z,16.99
2022-09-10T17:26:55.082Z,16.96
2022-09-10T17:29:25.322Z,16.90
2022-09-10T17:31:55.197Z,16.82
2022-09-10T17:34:25.177Z,16.82
2022-09-10T17:36:54.153Z,16.79
2022-09-10T17:39:23.272Z,16.78
2022-09-10T17:41:55.178Z,16.81
2022-09-10T17:44:24.300Z,16.80
2022-09-10T17:46:53.226Z,16.83
2022-09-10T17:49:22.043Z,16.81
2022-09-10T17:51:51.081Z,16.84
2022-09-10T17:54:20.034Z,16.74
2022-09-10T17:56:48.838Z,16.81
2022-09-10T17:59:18.916Z,16.74
2022-09-10T18:01:47.840Z,16.85
2022-09-10T18:04:16.710Z,16.88
2022-09-10T18:06:50.193Z,16.81
2022-09-10T18:09:21.945Z,16.91
2022-09-10T18:11:50.642Z,16.64
2022-09-10T18:14:21.910Z,16.69
2022-09-10T18:16:51.370Z,16.77
2022-09-10T18:19:21.171Z,16.71
2022-09-10T18:21:50.987Z,16.75
2022-09-10T18:24:20.850Z,16.76
2022-09-10T18:26:50.350Z,16.76
2022-09-10T18:29:22.546Z,16.70
2022-09-10T18:31:53.073Z,16.73
2022-09-10T18:34:24.056Z,16.45
2022-09-10T18:36:55.052Z,16.68
2022-09-10T18:39:25.963Z,16.49
2022-09-10T18:41:55.182Z,16.51
2022-09-10T18:44:27.222Z,16.64
2022-09-10T18:46:56.262Z,16.63
2022-09-10T18:49:25.847Z,16.44
2022-09-10T18:51:56.444Z,16.52
2022-09-10T18:54:28.092Z,16.64
2022-09-10T18:56:57.471Z,16.62
2022-09-10T18:59:27.744Z,16.42
2022-09-10T19:01:56.877Z,16.61
2022-09-10T19:04:27.395Z,16.65
2022-09-10T19:06:57.093Z,16.60
2022-09-10T19:09:27.882Z,16.65
2022-09-10T19:11:58.393Z,16.63
2022-09-10T19:14:30.545Z,16.56
2022-09-10T19:17:01.157Z,16.62
2022-09-10T19:19:31.722Z,16.58
2022-09-10T19:22:03.334Z,16.58
2022-09-10T19:27:21.644Z,16.38
2022-09-10T19:29:51.926Z,16.47
2022-09-10T19:32:21.029Z,16.59
2022-09-10T19:34:50.734Z,16.60
2022-09-10T19:37:19.735Z,16.55
2022-09-10T19:39:48.825Z,16.52
2022-09-10T19:42:18.282Z,16.53
2022-09-10T19:44:48.057Z,16.38
2022-09-10T19:47:19.512Z,16.42
2022-09-10T19:49:48.264Z,16.25
2022-09-10T19:52:17.033Z,16.30
2022-09-10T19:54:45.724Z,16.31
2022-09-10T19:57:14.495Z,16.37
2022-09-10T19:59:43.227Z,16.33
2022-09-10T20:02:11.979Z,16.15
2022-09-10T20:04:42.218Z,16.28
2022-09-10T20:07:10.881Z,16.33
2022-09-10T20:09:40.163Z,16.33
2022-09-10T20:12:09.796Z,16.20
2022-09-10T20:14:39.115Z,16.08
2022-09-10T20:17:07.853Z,16.10
2022-09-10T20:19:36.872Z,16.20
2022-09-10T20:22:07.786Z,16.22
2022-09-10T20:24:37.123Z,16.43
2022-09-10T20:27:06.270Z,16.38
2022-09-10T20:29:35.112Z,16.37
2022-09-10T20:32:04.166Z,16.33
2022-09-10T20:34:34.925Z,16.08
2022-09-10T20:37:04.235Z,16.31
2022-09-10T20:39:34.684Z,16.34
2022-09-10T20:42:04.612Z,16.35
2022-09-10T20:44:33.315Z,16.18
2022-09-10T20:47:03.386Z,16.25
2022-09-10T20:49:32.099Z,16.27
2022-09-10T20:52:00.837Z,16.16
2022-09-10T20:54:29.518Z,16.15
2022-09-10T20:57:00.282Z,16.12
2022-09-10T20:59:30.549Z,16.23
2022-09-10T21:01:59.458Z,16.19
2022-09-10T21:04:28.302Z,16.20
2022-09-10T21:06:57.131Z,16.12
2022-09-10T21:09:25.946Z,16.15
2022-09-10T21:11:54.723Z,16.10
2022-09-10T21:14:25.615Z,16.13
2022-09-10T21:16:54.328Z,16.13
2022-09-10T21:19:24.081Z,16.08
2022-09-10T21:21:53.063Z,16.02
2022-09-10T21:24:23.027Z,16.00
2022-09-10T21:26:53.551Z,15.89
2022-09-10T21:29:24.252Z,15.91
2022-09-10T21:31:54.796Z,15.98
2022-09-10T21:34:24.103Z,15.96
2022-09-10T21:36:52.860Z,15.85
2022-09-10T21:39:21.813Z,15.92
2022-09-10T21:41:51.349Z,16.00
2022-09-10T21:44:21.980Z,15.95
2022-09-10T21:46:52.642Z,16.05
2022-09-10T21:49:21.517Z,15.97
2022-09-10T21:51:50.439Z,15.92
2022-09-10T21:54:22.120Z,15.88
2022-09-10T21:56:54.085Z,15.92
2022-09-10T21:59:25.289Z,15.93
2022-09-10T22:01:55.986Z,15.81
2022-09-10T22:04:24.908Z,15.71
2022-09-10T22:06:54.472Z,15.78
2022-09-10T22:09:24.285Z,15.73
2022-09-10T22:11:54.267Z,15.67
2022-09-10T22:14:24.491Z,15.71
2022-09-10T22:16:53.595Z,15.68
2022-09-10T22:19:25.149Z,15.82
2022-09-10T22:21:56.671Z,15.56
2022-09-10T22:24:26.417Z,15.81
2022-09-10T22:26:55.200Z,15.85
2022-09-10T22:29:25.203Z,15.83
2022-09-10T22:31:54.021Z,15.77
2022-09-10T22:34:24.557Z,15.78
2022-09-10T22:36:53.456Z,15.60
2022-09-10T22:39:23.108Z,15.46
2022-09-10T22:41:52.302Z,15.57
2022-09-10T22:44:20.993Z,15.70
2022-09-10T22:46:49.900Z,15.39
2022-09-10T22:49:18.588Z,15.52
2022-09-10T22:51:48.966Z,15.76
2022-09-10T22:54:17.765Z,15.65
2022-09-10T22:56:46.389Z,15.73
2022-09-10T22:59:16.305Z,15.73
2022-09-10T23:01:47.326Z,15.69
2022-09-10T23:04:16.423Z,15.70
2022-09-10T23:06:45.221Z,15.69
2022-09-10T23:09:16.511Z,15.62
2022-09-10T23:11:45.675Z,15.60
2022-09-10T23:14:17.653Z,15.64
2022-09-10T23:16:48.363Z,15.63
2022-09-10T23:19:18.435Z,15.66
2022-09-10T23:21:48.703Z,15.67
2022-09-10T23:24:20.339Z,15.66
2022-09-10T23:26:49.500Z,15.59
2022-09-10T23:29:18.307Z,15.49
2022-09-10T23:31:47.756Z,15.51
2022-09-10T23:34:18.289Z,15.46
2022-09-10T23:36:48.789Z,15.47
2022-09-10T23:39:20.839Z,15.56
2022-09-10T23:41:49.874Z,15.57
2022-09-10T23:44:18.866Z,15.54
2022-09-10T23:46:47.960Z,15.52
2022-09-10T23:49:16.812Z,15.53
2022-09-10T23:51:45.537Z,15.51
2022-09-10T23:54:15.224Z,15.53
2022-09-10T23:56:45.506Z,15.53
2022-09-10T23:59:15.234Z,15.57
